Time;durP1;ratioP1;P1;durP2;ratioP2;P2;SDS_P1;SDS_P2;PMS_P1;PMS_P2;Temp;Humidity;BMP_temperature;BMP_pressure;BME280_temperature;BME280_humidity;BME280_pressure;Samples;Min_cycle;Max_cycle;Signal;HPM_P1;HPM_P2
2022/06/30 00:01:28;;;;;;;3.17;2.85;;;;;;;;;;5052411;28;20235;-52
2022/06/30 00:03:55;;;;;;;3.13;2.85;;;;;;;;;;5055335;28;20603;-52
2022/06/30 00:06:22;;;;;;;3.35;2.55;;;;;;;;;;5048576;28;20722;-52
2022/06/30 00:08:49;;;;;;;2.88;2.67;;;;;;;;;;5053179;28;20231;-51
2022/06/30 00:11:16;;;;;;;2.78;2.58;;;;;;;;;;5063042;28;20234;-52
2022/06/30 00:13:43;;;;;;;3.10;2.90;;;;;;;;;;5057892;28;20313;-51
2022/06/30 00:16:09;;;;;;;2.97;2.67;;;;;;;;;;5057564;28;20253;-51
2022/06/30 00:18:36;;;;;;;2.72;2.55;;;;;;;;;;5054274;28;20251;-51
2022/06/30 00:21:02;;;;;;;3.05;2.80;;;;;;;;;;5056509;28;20231;-51
2022/06/30 00:23:30;;;;;;;3.38;3.08;;;;;;;;;;5060447;28;20235;-51
2022/06/30 00:25:57;;;;;;;3.60;2.83;;;;;;;;;;5060415;28;20713;-51
2022/06/30 00:28:24;;;;;;;3.38;2.97;;;;;;;;;;5056264;28;20238;-51
2022/06/30 00:30:51;;;;;;;4.00;3.15;;;;;;;;;;5060563;28;20262;-52
2022/06/30 00:33:18;;;;;;;4.50;2.80;;;;;;;;;;5052985;28;20235;-51
2022/06/30 00:35:45;;;;;;;3.83;3.50;;;;;;;;;;5054331;28;20231;-52
2022/06/30 00:38:12;;;;;;;3.50;3.13;;;;;;;;;;5049307;28;20716;-51
2022/06/30 00:40:40;;;;;;;4.07;3.30;;;;;;;;;;5049673;28;20231;-52
2022/06/30 00:43:07;;;;;;;3.47;3.15;;;;;;;;;;5049400;28;20234;-52
2022/06/30 00:45:33;;;;;;;4.22;3.38;;;;;;;;;;5045674;28;20231;-52
2022/06/30 00:48:00;;;;;;;4.00;3.70;;;;;;;;;;5045934;28;20249;-51
2022/06/30 00:50:27;;;;;;;3.58;2.63;;;;;;;;;;5066840;28;20241;-51
2022/06/30 00:52:54;;;;;;;4.72;3.05;;;;;;;;;;5059858;28;20297;-51
2022/06/30 00:55:20;;;;;;;4.47;3.30;;;;;;;;;;5058170;28;20721;-52
2022/06/30 00:57:49;;;;;;;6.07;4.18;;;;;;;;;;5062622;28;20241;-54
2022/06/30 01:00:15;;;;;;;3.72;3.42;;;;;;;;;;5059707;28;20218;-51
2022/06/30 01:02:42;;;;;;;3.50;3.20;;;;;;;;;;5054291;28;20234;-52
2022/06/30 01:05:08;;;;;;;4.20;3.42;;;;;;;;;;5060157;28;20243;-51
2022/06/30 01:07:35;;;;;;;5.30;3.30;;;;;;;;;;5045829;28;20246;-51
2022/06/30 01:12:45;;;;;;;4.72;2.92;;;;;;;;;;5066807;28;20229;-52
2022/06/30 01:15:14;;;;;;;3.20;2.90;;;;;;;;;;5055243;28;20235;-51
2022/06/30 01:17:40;;;;;;;3.95;3.47;;;;;;;;;;5060104;28;20249;-52
2022/06/30 01:20:07;;;;;;;3.60;3.30;;;;;;;;;;5050999;28;20247;-52
2022/06/30 01:22:35;;;;;;;3.65;3.35;;;;;;;;;;5068721;28;20234;-52
2022/06/30 01:25:02;;;;;;;3.50;3.20;;;;;;;;;;5057338;28;20247;-52
2022/06/30 01:27:28;;;;;;;3.90;3.50;;;;;;;;;;5072171;28;20231;-59
2022/06/30 01:29:54;;;;;;;6.07;4.47;;;;;;;;;;5068126;28;20705;-59
2022/06/30 01:32:21;;;;;;;3.78;3.35;;;;;;;;;;5068306;28;20235;-52
2022/06/30 01:34:47;;;;;;;4.00;3.60;;;;;;;;;;5062824;28;20240;-52
2022/06/30 01:37:14;;;;;;;5.93;3.20;;;;;;;;;;5069479;28;20231;-52
2022/06/30 01:39:42;;;;;;;4.97;3.63;;;;;;;;;;5056591;28;20240;-52
2022/06/30 01:42:08;;;;;;;3.78;3.50;;;;;;;;;;5061310;28;20232;-54
2022/06/30 01:44:35;;;;;;;4.65;3.72;;;;;;;;;;5062178;28;20900;-51
2022/06/30 01:47:01;;;;;;;4.20;3.50;;;;;;;;;;5072627;28;20611;-52
2022/06/30 01:49:27;;;;;;;4.38;3.50;;;;;;;;;;5066557;28;20232;-52
2022/06/30 01:51:54;;;;;;;4.55;4.15;;;;;;;;;;5052054;28;20240;-52
2022/06/30 01:54:20;;;;;;;5.05;3.72;;;;;;;;;;5060020;28;20716;-52
2022/06/30 01:56:48;;;;;;;3.97;3.60;;;;;;;;;;5053795;28;20227;-52
2022/06/30 01:59:14;;;;;;;4.22;3.92;;;;;;;;;;5060771;28;20231;-53
2022/06/30 02:01:40;;;;;;;4.45;3.42;;;;;;;;;;5067182;28;20333;-53
2022/06/30 02:06:51;;;;;;;5.70;4.10;;;;;;;;;;5067399;28;21338;-53
2022/06/30 02:09:18;;;;;;;5.38;4.25;;;;;;;;;;5066819;28;20227;-52
2022/06/30 02:11:44;;;;;;;3.55;3.00;;;;;;;;;;5073219;28;20235;-52
2022/06/30 02:14:12;;;;;;;3.70;3.40;;;;;;;;;;5074457;28;20290;-53
2022/06/30 02:16:38;;;;;;;4.50;4.10;;;;;;;;;;5073593;28;20231;-52
2022/06/30 02:19:05;;;;;;;3.70;3.40;;;;;;;;;;5069380;28;20648;-52
2022/06/30 02:21:31;;;;;;;8.25;4.13;;;;;;;;;;5064527;28;20459;-58
2022/06/30 02:23:57;;;;;;;5.35;3.30;;;;;;;;;;5073493;28;20238;-52
2022/06/30 02:26:24;;;;;;;3.92;3.58;;;;;;;;;;5074316;28;20237;-53
2022/06/30 02:28:50;;;;;;;3.85;3.55;;;;;;;;;;5073963;28;20227;-53
2022/06/30 02:31:18;;;;;;;5.60;3.72;;;;;;;;;;5074169;28;20230;-54
2022/06/30 02:33:44;;;;;;;3.25;2.95;;;;;;;;;;5074783;28;20237;-53
2022/06/30 02:36:10;;;;;;;4.72;3.95;;;;;;;;;;5070816;28;20228;-53
2022/06/30 02:38:37;;;;;;;4.25;3.25;;;;;;;;;;5062173;28;20235;-51
2022/06/30 02:41:03;;;;;;;4.20;3.58;;;;;;;;;;5076107;28;20228;-52
2022/06/30 02:43:29;;;;;;;4.63;4.07;;;;;;;;;;5075758;28;20230;-53
2022/06/30 02:45:56;;;;;;;3.85;3.55;;;;;;;;;;5088407;28;20233;-57
2022/06/30 02:48:23;;;;;;;5.93;3.55;;;;;;;;;;5063635;28;20227;-53
2022/06/30 02:50:50;;;;;;;3.97;3.38;;;;;;;;;;5059406;28;20239;-52
2022/06/30 02:53:16;;;;;;;3.30;3.10;;;;;;;;;;5061592;28;20234;-52
2022/06/30 02:55:42;;;;;;;4.25;3.85;;;;;;;;;;5067617;28;20231;-52
2022/06/30 02:58:09;;;;;;;5.20;3.58;;;;;;;;;;5060104;28;20638;-52
2022/06/30 03:00:35;;;;;;;4.53;3.58;;;;;;;;;;5062722;28;20721;-52
2022/06/30 03:03:01;;;;;;;7.03;4.05;;;;;;;;;;5053201;28;20235;-52
2022/06/30 03:05:29;;;;;;;3.35;3.05;;;;;;;;;;5067427;28;20773;-51
2022/06/30 03:07:55;;;;;;;8.00;4.10;;;;;;;;;;5050649;28;20236;-53
2022/06/30 03:10:22;;;;;;;3.72;3.42;;;;;;;;;;5065603;28;20242;-52
2022/06/30 03:12:48;;;;;;;4.43;3.88;;;;;;;;;;5053947;28;20228;-52
2022/06/30 03:15:14;;;;;;;3.50;3.30;;;;;;;;;;5060830;28;20727;-53
2022/06/30 03:17:41;;;;;;;4.88;3.55;;;;;;;;;;5066132;28;20238;-52
2022/06/30 03:20:08;;;;;;;5.70;3.78;;;;;;;;;;5061273;28;20604;-51
2022/06/30 03:22:35;;;;;;;6.82;3.95;;;;;;;;;;5064651;28;20588;-51
2022/06/30 03:25:02;;;;;;;4.75;3.33;;;;;;;;;;5079045;28;20238;-52
2022/06/30 03:27:28;;;;;;;4.30;3.53;;;;;;;;;;5063230;28;20235;-51
2022/06/30 03:29:54;;;;;;;8.20;4.43;;;;;;;;;;5058815;28;20590;-52
2022/06/30 03:32:21;;;;;;;7.10;3.70;;;;;;;;;;5057437;28;20227;-51
2022/06/30 03:34:47;;;;;;;4.72;3.30;;;;;;;;;;5062903;28;20648;-51
2022/06/30 03:37:13;;;;;;;3.47;3.17;;;;;;;;;;5069268;28;20230;-53
2022/06/30 03:39:41;;;;;;;5.88;3.83;;;;;;;;;;5078351;28;20272;-52
2022/06/30 03:42:08;;;;;;;4.57;4.15;;;;;;;;;;5065875;28;20273;-52
2022/06/30 03:44:34;;;;;;;5.45;4.63;;;;;;;;;;5063637;28;20716;-52
2022/06/30 03:47:01;;;;;;;3.80;3.50;;;;;;;;;;5051774;28;20236;-52
2022/06/30 03:49:28;;;;;;;5.70;3.65;;;;;;;;;;5063106;28;20227;-52
2022/06/30 03:51:54;;;;;;;6.90;4.88;;;;;;;;;;5050971;28;20282;-53
2022/06/30 03:54:20;;;;;;;4.90;3.70;;;;;;;;;;5068908;28;20230;-52
2022/06/30 03:56:48;;;;;;;4.72;3.30;;;;;;;;;;5064277;28;20242;-53
2022/06/30 03:59:15;;;;;;;4.28;3.88;;;;;;;;;;5060975;28;20705;-51
2022/06/30 04:01:41;;;;;;;5.35;4.00;;;;;;;;;;5065279;28;20762;-53
2022/06/30 04:04:08;;;;;;;4.07;3.70;;;;;;;;;;5066239;28;20231;-53
2022/06/30 04:06:34;;;;;;;3.97;3.58;;;;;;;;;;5066527;28;20235;-52
2022/06/30 04:09:00;;;;;;;5.32;3.67;;;;;;;;;;5058284;28;20809;-52
2022/06/30 04:11:27;;;;;;;3.65;3.35;;;;;;;;;;5075269;28;20234;-52
2022/06/30 04:13:54;;;;;;;5.40;3.53;;;;;;;;;;5065128;28;20239;-51
2022/06/30 04:16:21;;;;;;;6.05;3.40;;;;;;;;;;5067894;28;20231;-52
2022/06/30 04:18:47;;;;;;;4.20;3.80;;;;;;;;;;5056885;28;20228;-52
2022/06/30 04:21:16;;;;;;;4.60;3.45;;;;;;;;;;5066375;28;20729;-52
2022/06/30 04:23:43;;;;;;;4.07;3.60;;;;;;;;;;5074335;28;20607;-51
2022/06/30 04:26:09;;;;;;;4.30;3.40;;;;;;;;;;5050778;28;20283;-53
2022/06/30 04:28:36;;;;;;;5.72;3.50;;;;;;;;;;5061629;28;20246;-54
2022/06/30 04:33:47;;;;;;;6.97;3.63;;;;;;;;;;5057568;28;20262;-52
2022/06/30 04:36:14;;;;;;;4.20;3.35;;;;;;;;;;5070719;28;20223;-51
2022/06/30 04:38:40;;;;;;;3.63;3.22;;;;;;;;;;5051854;28;20289;-53
2022/06/30 04:41:24;;;;;;;3.80;3.45;;;;;;;;;;5056710;28;20227;-52
2022/06/30 04:43:50;;;;;;;6.25;3.97;;;;;;;;;;5060319;28;20224;-53
2022/06/30 04:46:18;;;;;;;7.88;4.07;;;;;;;;;;5066545;28;20233;-52
2022/06/30 04:48:44;;;;;;;6.72;4.05;;;;;;;;;;5063768;28;20227;-52
2022/06/30 04:51:11;;;;;;;4.07;3.67;;;;;;;;;;5060365;28;20697;-53
2022/06/30 04:53:37;;;;;;;5.10;3.58;;;;;;;;;;5072759;28;20256;-52
2022/06/30 04:56:04;;;;;;;3.90;3.60;;;;;;;;;;5070677;28;20227;-53
2022/06/30 04:58:30;;;;;;;5.65;4.82;;;;;;;;;;5060727;28;20763;-53
2022/06/30 05:00:56;;;;;;;5.63;4.50;;;;;;;;;;5066008;28;20235;-53
2022/06/30 05:03:24;;;;;;;4.43;4.07;;;;;;;;;;5056510;28;20322;-51
2022/06/30 05:05:50;;;;;;;5.60;3.95;;;;;;;;;;5055998;28;20251;-53
2022/06/30 05:08:17;;;;;;;6.60;4.15;;;;;;;;;;5056238;28;20587;-52
2022/06/30 05:10:43;;;;;;;4.90;4.38;;;;;;;;;;5064002;28;20922;-52
2022/06/30 05:13:09;;;;;;;8.25;3.83;;;;;;;;;;5058877;28;20232;-53
2022/06/30 05:15:36;;;;;;;6.32;4.45;;;;;;;;;;5064971;28;20238;-53
2022/06/30 05:18:03;;;;;;;4.82;4.40;;;;;;;;;;5067167;28;20254;-52
2022/06/30 05:20:31;;;;;;;4.00;3.70;;;;;;;;;;5059644;28;20235;-52
2022/06/30 05:22:58;;;;;;;4.40;3.97;;;;;;;;;;5060408;28;20284;-52
2022/06/30 05:28:08;;;;;;;4.63;4.15;;;;;;;;;;5038968;28;20227;-52
2022/06/30 05:30:34;;;;;;;6.90;4.75;;;;;;;;;;5058385;28;20238;-55
2022/06/30 05:33:01;;;;;;;4.53;4.13;;;;;;;;;;5067814;28;20230;-52
2022/06/30 05:35:27;;;;;;;4.72;3.63;;;;;;;;;;5065536;28;20242;-53
2022/06/30 05:37:55;;;;;;;5.75;4.43;;;;;;;;;;5060558;28;20684;-52
2022/06/30 05:40:21;;;;;;;4.78;4.00;;;;;;;;;;5060829;28;20242;-53
2022/06/30 05:42:48;;;;;;;7.50;4.75;;;;;;;;;;5064104;28;20231;-52
2022/06/30 05:45:14;;;;;;;5.03;4.43;;;;;;;;;;5052203;28;20234;-51
2022/06/30 05:47:47;;;;;;;4.57;4.28;;;;;;;;;;5052424;28;20232;-52
2022/06/30 05:50:14;;;;;;;5.60;4.30;;;;;;;;;;5050109;28;20233;-51
2022/06/30 05:52:40;;;;;;;4.40;4.00;;;;;;;;;;5063771;28;20231;-53
2022/06/30 05:55:08;;;;;;;3.72;3.50;;;;;;;;;;5055800;28;20322;-51
2022/06/30 05:57:35;;;;;;;4.55;4.25;;;;;;;;;;5063583;28;20239;-52
2022/06/30 06:00:01;;;;;;;4.65;4.25;;;;;;;;;;5053203;28;20246;-50
2022/06/30 06:02:28;;;;;;;5.25;4.45;;;;;;;;;;5060204;28;20228;-51
2022/06/30 06:04:54;;;;;;;4.63;4.05;;;;;;;;;;5066368;28;20241;-51
2022/06/30 06:07:20;;;;;;;4.95;4.45;;;;;;;;;;5063082;28;20305;-52
2022/06/30 06:09:47;;;;;;;5.28;4.18;;;;;;;;;;5052448;28;20230;-51
2022/06/30 06:12:14;;;;;;;4.80;4.20;;;;;;;;;;5073024;28;20748;-53
2022/06/30 06:14:41;;;;;;;4.53;3.97;;;;;;;;;;5053578;28;20242;-52
2022/06/30 06:17:07;;;;;;;4.80;4.40;;;;;;;;;;5073053;28;20235;-52
2022/06/30 06:19:33;;;;;;;4.18;3.70;;;;;;;;;;5055145;28;20608;-52
2022/06/30 06:22:00;;;;;;;4.43;3.97;;;;;;;;;;5059438;28;20234;-52
2022/06/30 06:24:26;;;;;;;4.00;3.60;;;;;;;;;;5063023;28;20292;-51
2022/06/30 06:26:52;;;;;;;4.70;4.20;;;;;;;;;;5076409;28;20322;-51
2022/06/30 06:29:21;;;;;;;5.85;4.10;;;;;;;;;;5062369;28;20235;-52
2022/06/30 06:31:47;;;;;;;4.72;4.38;;;;;;;;;;5057202;28;20236;-52
2022/06/30 06:34:14;;;;;;;5.72;4.25;;;;;;;;;;5063063;28;20266;-52
2022/06/30 06:36:40;;;;;;;4.97;4.43;;;;;;;;;;5068494;28;20235;-52
2022/06/30 06:39:07;;;;;;;7.32;5.05;;;;;;;;;;5061102;28;20232;-52
2022/06/30 06:41:33;;;;;;;4.95;4.47;;;;;;;;;;5061086;28;20318;-53
2022/06/30 06:44:00;;;;;;;5.05;4.57;;;;;;;;;;5059514;28;20800;-52
2022/06/30 06:46:27;;;;;;;7.10;4.97;;;;;;;;;;5065080;28;20242;-50
2022/06/30 06:48:55;;;;;;;5.35;4.55;;;;;;;;;;5067839;28;20242;-52
2022/06/30 06:51:21;;;;;;;8.55;4.70;;;;;;;;;;5064137;28;20224;-51
2022/06/30 06:53:48;;;;;;;5.65;4.47;;;;;;;;;;5055447;28;20239;-53
2022/06/30 06:56:14;;;;;;;7.97;4.30;;;;;;;;;;5067390;28;20234;-51
2022/06/30 06:58:40;;;;;;;6.00;4.82;;;;;;;;;;5060899;28;20308;-52
2022/06/30 07:01:07;;;;;;;8.93;4.00;;;;;;;;;;5047836;28;20238;-52
2022/06/30 07:03:34;;;;;;;8.18;4.70;;;;;;;;;;5059412;28;20239;-52
2022/06/30 07:06:01;;;;;;;8.50;5.10;;;;;;;;;;5055570;28;20234;-52
2022/06/30 07:08:27;;;;;;;4.93;4.40;;;;;;;;;;5067176;28;20262;-52
2022/06/30 07:10:56;;;;;;;6.18;4.68;;;;;;;;;;5056115;28;20235;-52
2022/06/30 07:13:23;;;;;;;5.93;4.80;;;;;;;;;;5066200;28;20258;-52
2022/06/30 07:15:49;;;;;;;6.93;4.20;;;;;;;;;;5058871;28;20235;-53
2022/06/30 07:18:15;;;;;;;9.13;4.82;;;;;;;;;;5063542;28;20231;-54
2022/06/30 07:20:43;;;;;;;5.13;4.50;;;;;;;;;;5058545;28;20240;-51
2022/06/30 07:23:09;;;;;;;9.95;5.57;;;;;;;;;;5067703;28;20681;-53
2022/06/30 07:25:36;;;;;;;6.63;4.47;;;;;;;;;;5053623;28;20231;-53
2022/06/30 07:28:02;;;;;;;5.45;4.95;;;;;;;;;;5063757;28;20227;-52
2022/06/30 07:30:29;;;;;;;11.60;5.85;;;;;;;;;;5055856;28;20281;-52
2022/06/30 07:32:55;;;;;;;8.07;5.63;;;;;;;;;;5066074;28;20253;-53
2022/06/30 07:35:21;;;;;;;8.23;5.05;;;;;;;;;;5055731;28;20243;-52
2022/06/30 07:37:49;;;;;;;6.30;5.45;;;;;;;;;;5060070;28;20230;-53
2022/06/30 07:40:15;;;;;;;6.82;4.78;;;;;;;;;;5060220;28;20266;-53
2022/06/30 07:42:42;;;;;;;5.95;5.32;;;;;;;;;;5047017;28;20239;-53
2022/06/30 07:45:10;;;;;;;6.55;5.93;;;;;;;;;;5061615;28;20231;-51
2022/06/30 07:47:39;;;;;;;7.63;6.03;;;;;;;;;;5069874;28;20278;-53
2022/06/30 07:50:05;;;;;;;10.15;6.35;;;;;;;;;;5050200;28;20241;-52
2022/06/30 07:52:33;;;;;;;5.97;5.47;;;;;;;;;;5060544;28;20231;-52
2022/06/30 07:55:01;;;;;;;6.43;5.70;;;;;;;;;;5063304;28;20235;-53
2022/06/30 07:57:28;;;;;;;9.02;6.05;;;;;;;;;;5063281;28;20240;-50
2022/06/30 07:59:54;;;;;;;8.65;5.50;;;;;;;;;;5052843;28;20231;-52
2022/06/30 08:02:20;;;;;;;5.88;5.10;;;;;;;;;;5064901;28;20702;-53
2022/06/30 08:04:46;;;;;;;6.93;6.18;;;;;;;;;;5053430;28;20619;-52
2022/06/30 08:07:13;;;;;;;7.57;5.80;;;;;;;;;;5051016;28;20234;-52
2022/06/30 08:09:39;;;;;;;7.57;6.65;;;;;;;;;;5050697;28;20255;-53
2022/06/30 08:12:07;;;;;;;8.65;6.80;;;;;;;;;;5051641;28;20227;-53
2022/06/30 08:14:34;;;;;;;7.47;6.15;;;;;;;;;;5049918;28;20271;-52
2022/06/30 08:17:01;;;;;;;6.93;6.22;;;;;;;;;;5056785;28;20219;-51
2022/06/30 08:19:27;;;;;;;7.38;6.65;;;;;;;;;;5052596;28;20228;-53
2022/06/30 08:21:54;;;;;;;6.32;5.47;;;;;;;;;;5059338;28;20231;-53
2022/06/30 08:24:20;;;;;;;5.75;5.25;;;;;;;;;;5049101;28;20235;-52
2022/06/30 08:26:46;;;;;;;6.25;5.75;;;;;;;;;;5053897;28;20749;-53
2022/06/30 08:29:14;;;;;;;7.25;5.85;;;;;;;;;;5058414;28;20241;-53
2022/06/30 08:31:41;;;;;;;6.30;5.47;;;;;;;;;;5050100;28;20283;-53
2022/06/30 08:34:07;;;;;;;6.68;6.07;;;;;;;;;;5064922;28;20276;-53
2022/06/30 08:36:34;;;;;;;8.02;6.13;;;;;;;;;;5055330;28;20243;-52
2022/06/30 08:39:00;;;;;;;6.85;6.35;;;;;;;;;;5047509;28;20231;-52
2022/06/30 08:44:12;;;;;;;6.68;6.07;;;;;;;;;;5061278;28;20296;-53
2022/06/30 08:46:39;;;;;;;4.95;4.45;;;;;;;;;;5054845;28;20241;-51
2022/06/30 08:49:06;;;;;;;6.15;5.60;;;;;;;;;;5067182;28;20235;-53
2022/06/30 08:51:35;;;;;;;6.03;5.53;;;;;;;;;;5054374;28;20226;-53
2022/06/30 08:54:01;;;;;;;7.05;6.35;;;;;;;;;;5062317;28;20717;-52
2022/06/30 08:56:29;;;;;;;5.90;5.18;;;;;;;;;;5060076;28;20730;-52
2022/06/30 08:58:56;;;;;;;6.82;6.20;;;;;;;;;;5056059;28;20227;-52
2022/06/30 09:01:22;;;;;;;7.28;6.57;;;;;;;;;;5057310;28;20243;-52
2022/06/30 09:03:50;;;;;;;7.30;6.55;;;;;;;;;;5062943;28;20258;-53
2022/06/30 09:06:17;;;;;;;6.30;5.70;;;;;;;;;;5053597;28;20255;-53
2022/06/30 09:08:43;;;;;;;7.03;6.40;;;;;;;;;;5057328;28;21744;-52
2022/06/30 09:11:09;;;;;;;6.18;5.63;;;;;;;;;;5052432;28;20219;-52
2022/06/30 09:13:40;;;;;;;6.47;5.97;;;;;;;;;;5049200;28;20246;-52
2022/06/30 09:16:06;;;;;;;6.18;5.68;;;;;;;;;;5049255;28;20236;-52
2022/06/30 09:18:33;;;;;;;8.77;6.57;;;;;;;;;;5048038;28;20231;-52
2022/06/30 09:21:00;;;;;;;6.35;5.80;;;;;;;;;;5054945;28;20228;-52
2022/06/30 09:23:28;;;;;;;5.10;4.70;;;;;;;;;;5052992;28;20236;-52
2022/06/30 09:25:55;;;;;;;5.82;5.38;;;;;;;;;;5056752;28;20255;-52
2022/06/30 09:28:41;;;;;;;7.60;6.70;;;;;;;;;;5059104;28;20227;-52
2022/06/30 09:31:07;;;;;;;6.82;6.30;;;;;;;;;;5058646;28;20219;-53
2022/06/30 09:33:35;;;;;;;6.07;5.57;;;;;;;;;;5052678;28;20240;-52
2022/06/30 09:36:16;;;;;;;5.90;4.72;;;;;;;;;;5046424;28;20236;-52
2022/06/30 09:38:57;;;;;;;6.97;6.30;;;;;;;;;;5055925;28;20605;-52
2022/06/30 09:41:27;;;;;;;5.53;5.15;;;;;;;;;;5059208;28;20227;-55
2022/06/30 09:43:54;;;;;;;5.60;5.10;;;;;;;;;;5065297;28;20606;-53
2022/06/30 09:46:21;;;;;;;6.50;5.65;;;;;;;;;;5062265;28;20575;-52
2022/06/30 09:48:48;;;;;;;6.55;5.95;;;;;;;;;;5055370;28;20239;-53
2022/06/30 09:51:14;;;;;;;7.03;5.95;;;;;;;;;;5054949;28;20713;-54
2022/06/30 09:53:41;;;;;;;5.85;5.35;;;;;;;;;;5065176;28;20231;-53
2022/06/30 09:56:12;;;;;;;8.13;5.93;;;;;;;;;;5059166;28;20792;-53
2022/06/30 09:58:41;;;;;;;6.53;5.93;;;;;;;;;;5053296;28;20727;-53
2022/06/30 10:01:07;;;;;;;6.00;5.53;;;;;;;;;;5056577;28;20231;-51
2022/06/30 10:03:34;;;;;;;5.72;5.22;;;;;;;;;;5066834;28;21089;-52
2022/06/30 10:06:10;;;;;;;6.80;5.88;;;;;;;;;;5058152;28;20227;-52
2022/06/30 10:08:36;;;;;;;6.45;5.68;;;;;;;;;;5059085;28;20265;-52
2022/06/30 10:11:03;;;;;;;6.40;5.85;;;;;;;;;;5056310;28;20251;-51
2022/06/30 10:13:33;;;;;;;5.53;5.03;;;;;;;;;;5056359;28;20294;-52
2022/06/30 10:16:00;;;;;;;5.78;5.28;;;;;;;;;;5058632;28;20697;-52
2022/06/30 10:18:27;;;;;;;5.57;5.15;;;;;;;;;;5049148;28;20228;-51
2022/06/30 10:20:55;;;;;;;5.93;5.35;;;;;;;;;;5052118;28;20306;-54
2022/06/30 10:23:22;;;;;;;6.00;5.53;;;;;;;;;;5063193;28;20250;-53
2022/06/30 10:25:48;;;;;;;6.20;5.60;;;;;;;;;;5064033;28;20238;-52
2022/06/30 10:28:16;;;;;;;6.50;5.47;;;;;;;;;;5060343;28;20235;-52
2022/06/30 10:30:46;;;;;;;6.35;5.72;;;;;;;;;;5050991;28;20232;-51
2022/06/30 10:33:15;;;;;;;6.50;5.82;;;;;;;;;;5059767;28;20227;-52
2022/06/30 10:35:43;;;;;;;6.32;5.68;;;;;;;;;;5062897;28;20238;-52
2022/06/30 10:38:13;;;;;;;6.57;5.63;;;;;;;;;;5056125;28;20235;-52
2022/06/30 10:40:47;;;;;;;6.65;6.05;;;;;;;;;;5058382;28;20246;-52
2022/06/30 10:43:16;;;;;;;6.03;5.30;;;;;;;;;;5061540;28;21711;-52
2022/06/30 10:45:57;;;;;;;8.30;6.18;;;;;;;;;;5057644;28;20260;-52
2022/06/30 10:48:27;;;;;;;5.78;5.32;;;;;;;;;;5059081;28;20231;-52
2022/06/30 10:50:53;;;;;;;6.63;5.55;;;;;;;;;;5054337;28;20258;-51
2022/06/30 10:53:42;;;;;;;6.63;6.03;;;;;;;;;;5057171;28;20242;-51
2022/06/30 10:56:09;;;;;;;7.35;6.00;;;;;;;;;;5049971;28;20223;-52
2022/06/30 10:58:35;;;;;;;6.47;5.97;;;;;;;;;;5064104;28;20227;-52
2022/06/30 11:01:02;;;;;;;7.15;6.45;;;;;;;;;;5052675;28;20234;-52
2022/06/30 11:03:59;;;;;;;6.75;5.30;;;;;;;;;;5060092;28;20234;-52
2022/06/30 11:06:46;;;;;;;5.85;5.32;;;;;;;;;;5053344;28;20238;-52
2022/06/30 11:09:13;;;;;;;6.63;6.03;;;;;;;;;;5058395;28;20234;-54
2022/06/30 11:11:43;;;;;;;6.50;5.25;;;;;;;;;;5055589;28;20315;-50
2022/06/30 11:14:25;;;;;;;7.05;5.90;;;;;;;;;;5063351;28;20231;-51
2022/06/30 11:16:51;;;;;;;5.93;5.43;;;;;;;;;;5062937;28;20332;-51
2022/06/30 11:19:22;;;;;;;6.03;5.55;;;;;;;;;;5055777;28;20210;-51
2022/06/30 11:21:50;;;;;;;6.95;5.40;;;;;;;;;;5055037;28;20231;-53
2022/06/30 11:24:17;;;;;;;7.47;6.15;;;;;;;;;;5059158;28;20237;-52
2022/06/30 11:29:27;;;;;;;6.93;6.38;;;;;;;;;;5053388;28;20235;-52
2022/06/30 11:31:58;;;;;;;9.25;7.50;;;;;;;;;;5059291;28;20651;-53
2022/06/30 11:34:25;;;;;;;7.32;6.32;;;;;;;;;;5054273;28;20228;-52
2022/06/30 11:36:53;;;;;;;6.60;6.00;;;;;;;;;;5052943;28;20228;-52
2022/06/30 11:39:20;;;;;;;6.82;6.32;;;;;;;;;;5054825;28;20648;-53
2022/06/30 11:41:57;;;;;;;6.72;6.10;;;;;;;;;;5051919;28;20259;-52
2022/06/30 11:44:25;;;;;;;7.30;6.60;;;;;;;;;;5054571;28;20338;-52
2022/06/30 11:46:53;;;;;;;6.90;6.32;;;;;;;;;;5056339;28;20641;-52
2022/06/30 11:49:19;;;;;;;6.88;6.28;;;;;;;;;;5059919;28;20228;-51
2022/06/30 11:51:46;;;;;;;10.65;6.57;;;;;;;;;;5049217;28;20248;-52
2022/06/30 11:54:14;;;;;;;7.63;7.03;;;;;;;;;;5059912;28;20334;-52
2022/06/30 11:56:47;;;;;;;6.38;5.88;;;;;;;;;;5060451;28;20228;-53
2022/06/30 11:59:14;;;;;;;7.57;6.35;;;;;;;;;;5055203;28;20226;-53
2022/06/30 12:01:40;;;;;;;7.82;6.93;;;;;;;;;;5048628;28;20500;-52
2022/06/30 12:04:14;;;;;;;6.63;6.07;;;;;;;;;;5055227;28;20432;-52
2022/06/30 12:06:40;;;;;;;7.57;6.88;;;;;;;;;;5062138;28;20468;-51
2022/06/30 12:09:06;;;;;;;6.38;5.78;;;;;;;;;;5058369;28;20322;-52
2022/06/30 12:11:35;;;;;;;7.00;6.43;;;;;;;;;;5052786;28;20238;-51
2022/06/30 12:14:01;;;;;;;8.23;7.47;;;;;;;;;;5049634;28;20232;-52
2022/06/30 12:16:28;;;;;;;9.85;7.25;;;;;;;;;;5052484;28;20513;-52
2022/06/30 12:18:54;;;;;;;9.88;6.57;;;;;;;;;;5059708;28;20433;-52
2022/06/30 12:21:21;;;;;;;8.63;7.20;;;;;;;;;;5056585;28;20330;-50
2022/06/30 12:23:48;;;;;;;6.13;5.72;;;;;;;;;;5054557;28;20258;-52
2022/06/30 12:26:14;;;;;;;7.32;6.63;;;;;;;;;;5064140;28;20325;-52
2022/06/30 12:28:46;;;;;;;8.18;6.53;;;;;;;;;;5053697;28;20235;-53
2022/06/30 12:31:22;;;;;;;7.03;6.35;;;;;;;;;;5062291;28;20227;-53
2022/06/30 12:33:48;;;;;;;6.95;6.35;;;;;;;;;;5061846;28;20263;-52
2022/06/30 12:36:15;;;;;;;6.78;6.18;;;;;;;;;;5064800;28;20310;-52
2022/06/30 12:38:41;;;;;;;7.80;7.00;;;;;;;;;;5057685;28;20437;-54
2022/06/30 12:41:08;;;;;;;7.13;6.53;;;;;;;;;;5048575;28;20232;-52
2022/06/30 12:43:42;;;;;;;8.00;7.40;;;;;;;;;;5057834;28;20243;-52
2022/06/30 12:46:11;;;;;;;8.10;7.40;;;;;;;;;;5047447;28;20953;-51
2022/06/30 12:48:45;;;;;;;8.52;7.75;;;;;;;;;;5058320;28;20684;-57
2022/06/30 12:51:12;;;;;;;8.75;7.97;;;;;;;;;;5057475;28;20234;-51
2022/06/30 12:53:39;;;;;;;7.18;6.47;;;;;;;;;;5047505;28;20247;-52
2022/06/30 12:56:07;;;;;;;8.10;7.40;;;;;;;;;;5055963;28;20275;-52
2022/06/30 12:58:47;;;;;;;8.05;7.35;;;;;;;;;;5051600;28;20242;-51
2022/06/30 13:01:16;;;;;;;8.68;7.82;;;;;;;;;;5033090;28;20445;-54
2022/06/30 13:04:03;;;;;;;9.18;8.15;;;;;;;;;;5049424;28;20233;-51
2022/06/30 13:06:30;;;;;;;7.97;7.18;;;;;;;;;;5051067;28;20231;-51
2022/06/30 13:08:56;;;;;;;9.00;7.15;;;;;;;;;;5061272;28;20249;-51
2022/06/30 13:11:24;;;;;;;8.13;7.43;;;;;;;;;;5050106;28;20224;-51
2022/06/30 13:13:51;;;;;;;8.18;7.45;;;;;;;;;;5057200;28;20752;-52
2022/06/30 13:16:19;;;;;;;9.40;7.03;;;;;;;;;;5051804;28;20245;-52
2022/06/30 13:18:48;;;;;;;8.18;7.45;;;;;;;;;;5053064;28;20237;-53
2022/06/30 13:21:15;;;;;;;10.30;7.72;;;;;;;;;;5060498;28;20307;-52
2022/06/30 13:23:41;;;;;;;8.80;8.02;;;;;;;;;;5062359;28;20239;-53
2022/06/30 13:26:08;;;;;;;10.45;8.20;;;;;;;;;;5053588;28;20239;-52
2022/06/30 13:28:34;;;;;;;8.80;8.00;;;;;;;;;;5056972;28;20243;-54
2022/06/30 13:31:00;;;;;;;8.80;7.60;;;;;;;;;;5055226;28;20231;-51
2022/06/30 13:33:28;;;;;;;8.52;7.82;;;;;;;;;;5053556;28;20243;-51
2022/06/30 13:35:54;;;;;;;7.97;7.18;;;;;;;;;;5053189;28;20226;-53
2022/06/30 13:38:21;;;;;;;8.10;7.30;;;;;;;;;;5054009;28;20245;-52
2022/06/30 13:40:47;;;;;;;7.70;7.10;;;;;;;;;;5063691;28;20254;-53
2022/06/30 13:43:13;;;;;;;8.32;7.53;;;;;;;;;;5058661;28;20840;-51
2022/06/30 13:45:39;;;;;;;8.00;7.28;;;;;;;;;;5059427;28;20600;-53
2022/06/30 13:48:06;;;;;;;9.25;7.82;;;;;;;;;;5054983;28;20717;-53
2022/06/30 13:50:34;;;;;;;8.32;7.63;;;;;;;;;;5058868;28;20231;-52
2022/06/30 13:53:00;;;;;;;8.30;7.45;;;;;;;;;;5059700;28;20454;-53
2022/06/30 13:55:26;;;;;;;8.68;7.88;;;;;;;;;;5060348;28;20239;-53
2022/06/30 13:57:53;;;;;;;8.65;7.88;;;;;;;;;;5054425;28;20243;-52
2022/06/30 14:00:19;;;;;;;8.25;7.45;;;;;;;;;;5054734;28;20235;-53
2022/06/30 14:02:45;;;;;;;7.60;6.90;;;;;;;;;;5046028;28;20241;-52
2022/06/30 14:05:12;;;;;;;8.20;7.55;;;;;;;;;;5055793;28;20659;-52
2022/06/30 14:07:39;;;;;;;9.13;8.32;;;;;;;;;;5058239;28;20247;-52
2022/06/30 14:10:07;;;;;;;9.70;7.15;;;;;;;;;;5056294;28;20223;-51
2022/06/30 14:12:33;;;;;;;9.40;8.20;;;;;;;;;;5051879;28;20231;-51
2022/06/30 14:14:59;;;;;;;8.70;7.55;;;;;;;;;;5058436;28;20239;-51
2022/06/30 14:17:26;;;;;;;7.55;6.85;;;;;;;;;;5064589;28;20250;-53
2022/06/30 14:19:52;;;;;;;7.85;7.25;;;;;;;;;;5051174;28;20231;-50
2022/06/30 14:22:19;;;;;;;8.48;7.68;;;;;;;;;;5061524;28;20235;-52
2022/06/30 14:24:46;;;;;;;8.55;7.75;;;;;;;;;;5047423;28;20599;-51
2022/06/30 14:27:12;;;;;;;8.00;7.20;;;;;;;;;;5050628;28;20227;-52
2022/06/30 14:29:40;;;;;;;7.60;6.80;;;;;;;;;;5058102;28;20273;-51
2022/06/30 14:32:07;;;;;;;8.13;7.35;;;;;;;;;;5051538;28;20632;-53
2022/06/30 14:34:36;;;;;;;8.27;7.57;;;;;;;;;;5056109;28;20232;-54
2022/06/30 14:37:03;;;;;;;8.10;7.30;;;;;;;;;;5052290;28;20235;-51
2022/06/30 14:39:29;;;;;;;10.07;7.10;;;;;;;;;;5047728;28;20228;-53
2022/06/30 14:44:41;;;;;;;8.32;7.35;;;;;;;;;;5041230;28;20238;-52
2022/06/30 14:47:07;;;;;;;7.85;7.15;;;;;;;;;;5045049;28;20231;-52
2022/06/30 14:49:33;;;;;;;7.90;7.20;;;;;;;;;;5049513;28;20654;-52
2022/06/30 14:52:00;;;;;;;8.55;7.55;;;;;;;;;;5051141;28;20509;-52
2022/06/30 14:54:26;;;;;;;8.20;7.35;;;;;;;;;;5051632;28;20247;-51
2022/06/30 14:56:53;;;;;;;11.48;7.30;;;;;;;;;;5055293;28;20236;-50
2022/06/30 14:59:21;;;;;;;7.32;6.70;;;;;;;;;;5049988;28;20247;-53
2022/06/30 15:01:47;;;;;;;8.32;7.53;;;;;;;;;;5048646;28;20232;-52
2022/06/30 15:04:13;;;;;;;8.50;7.70;;;;;;;;;;5048980;28;20235;-51